createdAt,value
2023-10-02T00:01:38.055Z,50.07
2023-10-02T00:03:41.491Z,49.79
2023-10-02T00:05:51.826Z,50.12
2023-10-02T00:07:53.543Z,49.86
2023-10-02T00:09:55.255Z,49.93
2023-10-02T00:11:58.074Z,50.23
2023-10-02T00:14:18.645Z,50.21
2023-10-02T00:16:20.196Z,50.17
2023-10-02T00:18:21.741Z,49.92
2023-10-02T00:20:23.960Z,49.87
2023-10-02T00:22:44.426Z,50.00
2023-10-02T00:24:48.502Z,50.23
2023-10-02T00:26:50.047Z,49.97
2023-10-02T00:28:51.657Z,50.00
2023-10-02T00:30:53.212Z,50.25
2023-10-02T00:32:54.821Z,50.01
2023-10-02T00:35:00.263Z,50.08
2023-10-02T00:37:28.852Z,50.02
2023-10-02T00:39:33.749Z,49.99
2023-10-02T00:41:35.551Z,50.04
2023-10-02T00:43:37.621Z,50.05
2023-10-02T00:47:50.575Z,49.98
2023-10-02T00:50:08.160Z,50.12
2023-10-02T00:52:10.211Z,50.09
2023-10-02T00:58:45.580Z,50.20
2023-10-02T01:00:52.183Z,50.40
2023-10-02T01:02:58.546Z,50.05
2023-10-02T01:09:19.561Z,50.17
2023-10-02T01:11:21.414Z,50.32
2023-10-02T01:13:34.007Z,50.25
2023-10-02T01:15:49.502Z,50.28
2023-10-02T01:17:52.610Z,50.25
2023-10-02T01:19:54.996Z,50.25
2023-10-02T01:22:01.784Z,50.26
2023-10-02T01:24:18.194Z,50.07
2023-10-02T01:26:20.452Z,50.18
2023-10-02T01:28:26.628Z,50.67
2023-10-02T01:30:28.189Z,50.15
2023-10-02T01:32:30.559Z,50.22
2023-10-02T01:34:35.429Z,50.32
2023-10-02T01:36:42.665Z,50.38
2023-10-02T01:38:45.624Z,50.25
2023-10-02T01:40:49.631Z,50.30
2023-10-02T01:42:51.411Z,50.34
2023-10-02T01:44:56.424Z,50.43
2023-10-02T01:46:58.379Z,50.35
2023-10-02T01:51:28.163Z,50.44
2023-10-02T01:53:30.566Z,50.29
2023-10-02T01:55:32.742Z,50.36
2023-10-02T01:57:35.859Z,50.54
2023-10-02T01:59:37.314Z,50.29
2023-10-02T02:01:55.624Z,50.57
2023-10-02T02:04:00.507Z,50.36
2023-10-02T02:06:10.118Z,50.69
2023-10-02T02:08:23.761Z,50.36
2023-10-02T02:10:30.530Z,50.57
2023-10-02T02:12:45.962Z,50.54
2023-10-02T02:14:54.823Z,50.64
2023-10-02T02:16:56.565Z,50.42
2023-10-02T02:18:59.280Z,50.40
2023-10-02T02:21:03.971Z,50.68
2023-10-02T02:23:09.140Z,50.30
2023-10-02T02:25:10.673Z,50.36
2023-10-02T02:27:12.363Z,50.58
2023-10-02T02:29:27.638Z,50.52
2023-10-02T02:31:32.925Z,50.40
2023-10-02T02:33:39.855Z,50.51
2023-10-02T02:35:41.517Z,50.42
2023-10-02T02:37:45.038Z,50.37
2023-10-02T02:39:47.073Z,50.56
2023-10-02T02:42:12.726Z,50.74
2023-10-02T02:44:33.640Z,50.75
2023-10-02T02:46:35.151Z,50.45
2023-10-02T02:48:45.265Z,50.49
2023-10-02T02:50:48.237Z,50.67
2023-10-02T02:53:09.718Z,50.78
2023-10-02T02:55:14.236Z,50.72
2023-10-02T02:57:16.757Z,50.59
2023-10-02T02:59:19.245Z,50.70
2023-10-02T03:01:25.049Z,50.80
2023-10-02T03:03:35.755Z,50.61
2023-10-02T03:05:42.390Z,50.69
2023-10-02T03:07:45.745Z,50.93
2023-10-02T03:09:48.230Z,50.81
2023-10-02T03:11:49.825Z,50.91
2023-10-02T03:13:51.603Z,50.83
2023-10-02T03:15:54.998Z,50.78
2023-10-02T03:18:00.184Z,50.76
2023-10-02T03:20:01.979Z,50.55
2023-10-02T03:22:03.661Z,50.98
2023-10-02T03:24:05.691Z,50.83
2023-10-02T03:26:23.199Z,50.78
2023-10-02T03:28:33.375Z,50.69
2023-10-02T03:30:40.112Z,50.77
2023-10-02T03:32:46.441Z,50.52
2023-10-02T03:35:03.569Z,50.62
2023-10-02T03:37:14.506Z,50.70
2023-10-02T03:39:25.074Z,51.06
2023-10-02T03:41:45.950Z,50.71
2023-10-02T03:43:49.116Z,51.04
2023-10-02T03:45:52.579Z,50.77
2023-10-02T03:48:03.511Z,50.63
2023-10-02T03:50:13.049Z,50.71
2023-10-02T03:52:18.068Z,51.01
2023-10-02T03:54:20.398Z,50.82
2023-10-02T03:56:43.919Z,50.91
2023-10-02T03:58:45.807Z,50.82
2023-10-02T04:00:52.149Z,50.80
2023-10-02T04:02:54.867Z,50.78
2023-10-02T04:04:56.642Z,50.60
2023-10-02T04:06:59.691Z,51.00
2023-10-02T04:09:22.474Z,51.11
2023-10-02T04:11:26.073Z,50.74
2023-10-02T04:13:32.908Z,50.88
2023-10-02T04:15:34.948Z,51.06
2023-10-02T04:17:36.586Z,50.76
2023-10-02T04:19:42.177Z,50.82
2023-10-02T04:21:46.476Z,50.73
2023-10-02T04:23:48.184Z,50.64
2023-10-02T04:25:53.024Z,50.85
2023-10-02T04:27:57.474Z,51.03
2023-10-02T04:30:08.033Z,50.81
2023-10-02T04:32:15.340Z,50.82
2023-10-02T04:34:25.209Z,50.74
2023-10-02T04:36:35.941Z,51.10
2023-10-02T04:38:51.072Z,51.12
2023-10-02T04:40:52.979Z,50.95
2023-10-02T04:43:16.066Z,50.92
2023-10-02T04:45:26.886Z,50.83
2023-10-02T04:47:29.418Z,50.72
2023-10-02T04:49:31.286Z,51.03
2023-10-02T04:51:37.186Z,50.80
2023-10-02T04:53:44.038Z,50.86
2023-10-02T04:55:46.040Z,50.91
2023-10-02T04:57:51.234Z,51.20
2023-10-02T04:59:53.064Z,51.13
2023-10-02T05:02:14.704Z,50.93
2023-10-02T05:04:20.057Z,51.20
2023-10-02T05:06:45.614Z,51.15
2023-10-02T05:08:56.528Z,51.25
2023-10-02T05:10:58.540Z,51.10
2023-10-02T05:13:00.490Z,51.12
2023-10-02T05:15:08.592Z,51.14
2023-10-02T05:17:20.195Z,51.10
2023-10-02T05:19:42.277Z,51.14
2023-10-02T05:21:56.297Z,51.14
2023-10-02T05:24:01.706Z,50.83
2023-10-02T05:26:03.532Z,51.02
2023-10-02T05:28:06.954Z,51.15
2023-10-02T05:30:15.515Z,51.33
2023-10-02T05:32:26.744Z,51.15
2023-10-02T05:34:28.300Z,51.16
2023-10-02T05:36:31.102Z,51.33
2023-10-02T05:38:34.796Z,51.25
2023-10-02T05:40:39.728Z,51.18
2023-10-02T05:42:47.476Z,51.01
2023-10-02T05:44:48.987Z,51.27
2023-10-02T05:46:57.550Z,50.93
2023-10-02T05:49:03.984Z,51.18
2023-10-02T05:51:10.971Z,51.06
2023-10-02T05:53:13.119Z,50.70
2023-10-02T05:55:18.528Z,50.77
2023-10-02T05:57:20.501Z,51.08
2023-10-02T05:59:26.133Z,50.73
2023-10-02T06:01:28.251Z,51.08
2023-10-02T06:03:36.122Z,51.08
2023-10-02T06:05:43.711Z,51.11
2023-10-02T06:07:52.722Z,50.82
2023-10-02T06:09:54.465Z,51.13
2023-10-02T06:12:03.605Z,51.13
2023-10-02T06:14:12.571Z,51.11
2023-10-02T06:16:15.799Z,50.81
2023-10-02T06:18:28.914Z,50.87
2023-10-02T06:20:30.622Z,51.14
2023-10-02T06:22:32.784Z,51.23
2023-10-02T06:24:34.608Z,51.03
2023-10-02T06:26:51.016Z,51.03
2023-10-02T06:29:12.761Z,51.14
2023-10-02T06:31:16.302Z,50.99
2023-10-02T06:33:19.114Z,51.20
2023-10-02T06:35:27.968Z,51.15
2023-10-02T06:37:37.981Z,50.79
2023-10-02T06:39:41.272Z,51.11
2023-10-02T06:41:43.792Z,51.02
2023-10-02T06:43:45.398Z,51.18
2023-10-02T06:45:55.614Z,50.81
2023-10-02T06:47:58.114Z,50.75
2023-10-02T06:50:04.933Z,50.98
2023-10-02T06:52:19.138Z,51.11
2023-10-02T06:54:20.859Z,50.87
2023-10-02T06:56:22.397Z,51.01
2023-10-02T06:58:26.173Z,50.99
2023-10-02T07:00:48.147Z,51.09
2023-10-02T07:02:59.260Z,50.98
2023-10-02T07:05:01.383Z,50.96
2023-10-02T07:07:08.961Z,50.95
2023-10-02T07:09:14.710Z,50.94
2023-10-02T07:11:19.909Z,50.96
2023-10-02T07:13:22.983Z,51.09
2023-10-02T07:15:24.616Z,51.08
2023-10-02T07:17:26.824Z,51.20
2023-10-02T07:19:39.787Z,51.04
2023-10-02T07:21:42.210Z,51.15
2023-10-02T07:23:44.530Z,51.20
2023-10-02T07:30:06.118Z,50.82
2023-10-02T07:32:08.132Z,51.27
2023-10-02T07:34:10.018Z,50.89
2023-10-02T07:40:48.373Z,51.25
2023-10-02T07:42:50.226Z,51.12
2023-10-02T07:44:52.210Z,51.25
2023-10-02T07:46:57.182Z,51.14
2023-10-02T07:51:10.558Z,51.15
2023-10-02T07:53:13.723Z,51.13
2023-10-02T07:55:16.678Z,51.00
2023-10-02T07:57:19.444Z,51.16
2023-10-02T07:59:21.154Z,51.16
2023-10-02T08:05:39.903Z,51.14
2023-10-02T08:09:49.332Z,50.86
2023-10-02T08:11:51.882Z,50.79
2023-10-02T08:13:54.126Z,51.15
2023-10-02T08:15:56.773Z,51.10
2023-10-02T08:17:58.362Z,51.08
2023-10-02T08:20:00.750Z,50.61
2023-10-02T08:22:06.386Z,50.99
2023-10-02T08:24:12.248Z,50.97
2023-10-02T08:26:26.642Z,50.95
2023-10-02T08:28:34.706Z,51.17
2023-10-02T08:30:37.936Z,51.17
2023-10-02T08:32:39.776Z,51.08
2023-10-02T08:34:41.579Z,50.86
2023-10-02T08:36:43.399Z,50.94
2023-10-02T08:38:52.151Z,51.04
2023-10-02T08:41:00.494Z,51.04
2023-10-02T08:43:07.032Z,50.82
2023-10-02T08:45:20.003Z,50.74
2023-10-02T08:47:28.767Z,50.88
2023-10-02T08:49:31.570Z,50.70
2023-10-02T08:51:37.210Z,50.94
2023-10-02T08:53:44.226Z,50.69
2023-10-02T08:55:48.903Z,51.06
2023-10-02T08:58:02.320Z,51.05
2023-10-02T09:00:15.120Z,50.98
2023-10-02T09:02:18.336Z,50.68
2023-10-02T09:04:23.393Z,50.68
2023-10-02T09:06:36.822Z,51.01
2023-10-02T09:09:00.780Z,50.56
2023-10-02T09:11:02.575Z,50.76
2023-10-02T09:13:16.897Z,50.89
2023-10-02T09:15:32.634Z,50.73
2023-10-02T09:17:46.382Z,50.58
2023-10-02T09:19:57.748Z,50.68
2023-10-02T09:22:08.578Z,50.69
2023-10-02T09:24:20.289Z,50.52
2023-10-02T09:26:25.348Z,50.91
2023-10-02T09:28:41.866Z,50.59
2023-10-02T09:30:44.128Z,50.73
2023-10-02T09:32:57.586Z,50.57
2023-10-02T09:35:25.858Z,50.74
2023-10-02T09:38:04.283Z,50.65
2023-10-02T09:39:58.206Z,50.57
2023-10-02T09:42:07.167Z,50.64
2023-10-02T09:44:17.281Z,50.52
2023-10-02T09:46:24.994Z,50.67
2023-10-02T09:48:48.155Z,50.68
2023-10-02T09:50:51.085Z,50.56
2023-10-02T09:52:59.539Z,50.58
2023-10-02T09:55:06.038Z,50.56
2023-10-02T09:57:18.333Z,50.64
2023-10-02T09:59:21.760Z,50.67
2023-10-02T10:01:35.297Z,50.63
2023-10-02T10:03:48.926Z,50.69
2023-10-02T10:06:09.447Z,50.53
2023-10-02T10:08:14.022Z,50.62
2023-10-02T10:10:48.127Z,50.56
2023-10-02T10:12:55.373Z,50.59
2023-10-02T10:15:24.904Z,50.52
2023-10-02T10:17:49.279Z,50.57
2023-10-02T10:20:10.451Z,50.81
2023-10-02T10:22:31.521Z,50.44
2023-10-02T10:24:33.072Z,50.89
2023-10-02T10:26:40.676Z,50.52
2023-10-02T10:29:08.476Z,50.50
2023-10-02T10:31:10.452Z,50.46
2023-10-02T10:33:12.880Z,50.63
2023-10-02T10:35:34.515Z,50.54
2023-10-02T10:37:42.053Z,50.56
2023-10-02T10:39:53.559Z,50.50
2023-10-02T10:42:01.281Z,50.43
2023-10-02T10:44:09.074Z,50.38
2023-10-02T10:46:20.455Z,50.71
2023-10-02T10:48:25.425Z,50.56
2023-10-02T10:50:33.825Z,50.78
2023-10-02T10:52:39.854Z,50.62
2023-10-02T10:54:56.706Z,50.56
2023-10-02T10:57:17.824Z,50.58
2023-10-02T10:59:33.514Z,50.56
2023-10-02T11:01:35.493Z,50.92
2023-10-02T11:03:39.765Z,50.50
2023-10-02T11:05:42.360Z,50.61
2023-10-02T11:07:47.874Z,50.81
2023-10-02T11:10:17.628Z,50.82
2023-10-02T11:12:27.074Z,50.50
2023-10-02T11:14:35.643Z,50.59
2023-10-02T11:16:38.045Z,50.55
2023-10-02T11:18:40.603Z,50.46
2023-10-02T11:20:42.277Z,50.56
2023-10-02T11:22:51.022Z,50.69
2023-10-02T11:24:54.072Z,50.90
2023-10-02T11:27:08.714Z,50.54
2023-10-02T11:29:21.952Z,50.44
2023-10-02T11:31:31.280Z,50.53
2023-10-02T11:33:34.385Z,50.68
2023-10-02T11:35:40.668Z,50.68
2023-10-02T11:37:47.558Z,50.65
2023-10-02T11:39:51.758Z,50.72
2023-10-02T11:41:53.522Z,50.78
2023-10-02T11:43:55.997Z,50.72
2023-10-02T11:45:57.658Z,50.68
2023-10-02T11:47:59.598Z,50.62
2023-10-02T11:50:01.613Z,50.64
2023-10-02T11:52:03.399Z,50.49
2023-10-02T11:54:10.135Z,50.63
2023-10-02T11:56:11.776Z,50.55
2023-10-02T11:58:13.373Z,50.59
2023-10-02T12:00:15.216Z,50.72
2023-10-02T12:02:18.195Z,50.61
2023-10-02T12:04:19.701Z,50.44
2023-10-02T12:06:22.355Z,50.56
2023-10-02T12:08:23.885Z,50.58
2023-10-02T12:10:26.589Z,50.74
2023-10-02T12:12:29.149Z,50.59
2023-10-02T12:14:31.610Z,50.30
2023-10-02T12:16:33.208Z,50.68
2023-10-02T12:18:35.990Z,50.52
2023-10-02T12:20:44.070Z,50.54
2023-10-02T12:22:47.657Z,50.43
2023-10-02T12:24:49.111Z,50.58
2023-10-02T12:26:51.174Z,50.52
2023-10-02T12:28:52.820Z,50.34
2023-10-02T12:30:55.016Z,50.52
2023-10-02T12:32:57.026Z,50.54
2023-10-02T12:34:58.599Z,50.61
2023-10-02T12:37:01.685Z,50.53
2023-10-02T12:39:05.649Z,50.53
2023-10-02T12:41:18.226Z,50.63
2023-10-02T12:43:21.702Z,50.59
2023-10-02T12:45:23.354Z,50.33
2023-10-02T12:47:24.901Z,50.59
2023-10-02T12:49:26.508Z,50.55
2023-10-02T12:51:29.552Z,50.22
2023-10-02T12:53:31.089Z,50.57
2023-10-02T12:55:35.597Z,50.23
2023-10-02T12:57:39.940Z,50.46
2023-10-02T12:59:44.959Z,50.35
2023-10-02T13:01:46.675Z,50.54
2023-10-02T13:03:48.305Z,50.22
2023-10-02T13:05:50.893Z,50.50
2023-10-02T13:07:56.914Z,50.53
2023-10-02T13:09:58.521Z,50.56
2023-10-02T13:12:01.711Z,50.16
2023-10-02T13:14:03.639Z,50.15
2023-10-02T13:16:06.140Z,50.09
2023-10-02T13:18:07.726Z,50.46
2023-10-02T13:20:11.850Z,50.46
2023-10-02T13:22:13.512Z,50.19
2023-10-02T13:24:16.099Z,50.20
2023-10-02T13:26:19.174Z,50.35
2023-10-02T13:28:21.513Z,50.08
2023-10-02T13:30:27.088Z,50.19
2023-10-02T13:32:28.759Z,50.04
2023-10-02T13:34:32.524Z,50.03
2023-10-02T13:36:34.957Z,50.26
2023-10-02T13:38:37.088Z,50.13
2023-10-02T13:40:39.426Z,50.16
2023-10-02T13:42:42.738Z,49.97
2023-10-02T13:44:44.710Z,50.26
2023-10-02T13:46:49.426Z,50.33
2023-10-02T13:48:53.801Z,50.07
2023-10-02T13:51:03.507Z,50.11
2023-10-02T13:53:06.847Z,50.06
2023-10-02T13:55:24.068Z,50.10
2023-10-02T13:57:26.460Z,50.16
2023-10-02T13:59:30.371Z,50.10
2023-10-02T14:01:34.109Z,49.92
2023-10-02T14:03:37.192Z,50.00
2023-10-02T14:05:40.694Z,49.94
2023-10-02T14:07:45.691Z,50.08
2023-10-02T14:09:47.923Z,49.77
2023-10-02T14:11:49.537Z,50.05
2023-10-02T14:13:52.548Z,50.19
2023-10-02T14:15:57.176Z,50.16
2023-10-02T14:17:58.783Z,50.00
2023-10-02T14:20:00.481Z,49.87
2023-10-02T14:22:02.020Z,49.98
2023-10-02T14:24:05.986Z,49.86
2023-10-02T14:26:08.678Z,50.01
2023-10-02T14:28:11.789Z,50.04
2023-10-02T14:30:14.180Z,49.84
2023-10-02T14:32:15.779Z,49.63
2023-10-02T14:34:17.521Z,50.05
2023-10-02T14:36:20.172Z,49.66
2023-10-02T14:38:22.632Z,49.61
2023-10-02T14:40:34.465Z,49.91
2023-10-02T14:42:36.107Z,49.84
2023-10-02T14:44:38.081Z,49.92
2023-10-02T14:46:41.053Z,49.85
2023-10-02T14:48:47.302Z,49.77
2023-10-02T14:50:49.566Z,49.89
2023-10-02T14:52:52.024Z,49.74
2023-10-02T14:54:53.730Z,49.87
2023-10-02T14:56:55.265Z,49.97
2023-10-02T14:58:56.769Z,49.80
2023-10-02T15:00:58.309Z,49.83
2023-10-02T15:03:00.007Z,49.80
2023-10-02T15:05:01.594Z,49.56
2023-10-02T15:07:03.173Z,49.67
2023-10-02T15:09:10.681Z,49.56
2023-10-02T15:11:16.768Z,49.92
2023-10-02T15:13:19.046Z,49.74
2023-10-02T15:15:22.000Z,49.65
2023-10-02T15:17:23.629Z,49.84
2023-10-02T15:19:25.199Z,49.65
2023-10-02T15:21:29.608Z,49.52
2023-10-02T15:23:31.128Z,49.61
2023-10-02T15:25:33.320Z,49.65
2023-10-02T15:27:34.841Z,49.51
2023-10-02T15:29:36.439Z,49.55
2023-10-02T15:31:37.932Z,49.85
2023-10-02T15:33:39.943Z,49.62
2023-10-02T15:35:43.083Z,49.87
2023-10-02T15:37:45.184Z,49.52
2023-10-02T15:39:47.935Z,49.66
2023-10-02T15:41:49.625Z,49.66
2023-10-02T15:43:52.783Z,49.67
2023-10-02T15:45:55.224Z,49.73
2023-10-02T15:47:56.834Z,49.70
2023-10-02T15:49:58.483Z,49.69
2023-10-02T15:52:01.358Z,49.66
2023-10-02T15:54:03.082Z,49.63
2023-10-02T15:56:11.923Z,49.50
2023-10-02T15:58:14.040Z,49.71
2023-10-02T16:00:25.697Z,49.68
2023-10-02T16:02:27.543Z,49.55
2023-10-02T16:04:29.284Z,49.53
2023-10-02T16:06:30.908Z,49.57
2023-10-02T16:08:32.561Z,49.63
2023-10-02T16:10:34.168Z,49.67
2023-10-02T16:12:35.901Z,49.66
2023-10-02T16:14:37.790Z,49.58
2023-10-02T16:16:39.361Z,49.60
2023-10-02T16:18:41.116Z,49.68
2023-10-02T16:20:42.700Z,49.59
2023-10-02T16:22:44.901Z,49.53
2023-10-02T16:24:46.753Z,49.45
2023-10-02T16:26:48.274Z,49.66
2023-10-02T16:28:52.570Z,49.53
2023-10-02T16:30:54.947Z,49.51
2023-10-02T16:32:56.951Z,49.63
2023-10-02T16:35:00.625Z,49.50
2023-10-02T16:37:03.919Z,49.41
2023-10-02T16:39:07.073Z,49.49
2023-10-02T16:41:10.990Z,49.36
2023-10-02T16:43:12.969Z,49.61
2023-10-02T16:45:18.132Z,49.61
2023-10-02T16:47:20.693Z,49.57
2023-10-02T16:49:22.275Z,49.50
2023-10-02T16:51:23.874Z,49.63
2023-10-02T16:53:25.569Z,49.69
2023-10-02T16:55:28.397Z,49.54
2023-10-02T16:57:31.639Z,49.63
2023-10-02T16:59:33.906Z,49.59
2023-10-02T17:01:35.476Z,49.64
2023-10-02T17:03:37.477Z,49.74
2023-10-02T17:05:39.114Z,49.56
2023-10-02T17:07:41.544Z,49.63
2023-10-02T17:09:45.473Z,49.76
2023-10-02T17:11:47.284Z,49.77
2023-10-02T17:13:48.845Z,49.49
2023-10-02T17:15:50.787Z,49.51
2023-10-02T17:17:54.115Z,49.56
2023-10-02T17:19:55.820Z,49.37
2023-10-02T17:21:57.833Z,49.57
2023-10-02T17:24:00.032Z,49.75
2023-10-02T17:26:06.159Z,49.56
2023-10-02T17:28:07.772Z,49.67
2023-10-02T17:30:13.551Z,49.63
2023-10-02T17:32:16.441Z,49.63
2023-10-02T17:34:18.027Z,49.59
2023-10-02T17:36:19.584Z,49.83
2023-10-02T17:38:21.900Z,49.73
2023-10-02T17:40:25.111Z,49.74
2023-10-02T17:42:26.909Z,49.80
2023-10-02T17:44:30.054Z,49.84
2023-10-02T17:46:32.765Z,49.86
2023-10-02T17:48:34.830Z,49.84
2023-10-02T17:50:36.585Z,49.68
2023-10-02T17:52:42.444Z,49.85
2023-10-02T17:54:44.052Z,49.88
2023-10-02T17:56:46.210Z,49.70
2023-10-02T17:58:47.723Z,49.77
2023-10-02T18:00:49.280Z,49.84
2023-10-02T18:02:50.989Z,49.68
2023-10-02T18:04:55.539Z,49.92
2023-10-02T18:06:58.553Z,49.68
2023-10-02T18:09:00.330Z,49.96
2023-10-02T18:11:02.081Z,49.89
2023-10-02T18:13:03.900Z,49.74
2023-10-02T18:15:09.051Z,49.74
2023-10-02T18:17:14.198Z,49.82
2023-10-02T18:19:16.326Z,49.78
2023-10-02T18:21:19.891Z,49.97
2023-10-02T18:23:21.504Z,49.82
2023-10-02T18:25:23.591Z,50.04
2023-10-02T18:27:27.326Z,49.64
2023-10-02T18:29:29.972Z,49.94
2023-10-02T18:31:31.645Z,49.99
2023-10-02T18:33:33.558Z,49.83
2023-10-02T18:35:37.305Z,49.99
2023-10-02T18:37:38.949Z,49.97
2023-10-02T18:39:40.514Z,50.01
2023-10-02T18:41:42.187Z,50.01
2023-10-02T18:43:43.733Z,49.75
2023-10-02T18:45:45.828Z,49.84
2023-10-02T18:47:47.860Z,50.14
2023-10-02T18:49:50.916Z,49.90
2023-10-02T18:51:52.569Z,49.88
2023-10-02T18:53:57.371Z,50.14
2023-10-02T18:55:58.880Z,50.05
2023-10-02T18:58:00.539Z,49.91
2023-10-02T19:02:03.981Z,50.02
2023-10-02T19:04:06.825Z,49.98
2023-10-02T19:06:14.165Z,50.17
2023-10-02T19:08:16.053Z,50.14
2023-10-02T19:10:17.645Z,50.09
2023-10-02T19:12:19.165Z,50.19
2023-10-02T19:14:23.225Z,50.02
2023-10-02T19:16:24.897Z,49.88
2023-10-02T19:18:28.665Z,49.99
2023-10-02T19:20:32.386Z,50.17
2023-10-02T19:22:36.420Z,50.11
2023-10-02T19:24:37.883Z,50.13
2023-10-02T19:26:39.441Z,50.15
2023-10-02T19:28:40.983Z,50.16
2023-10-02T19:30:43.845Z,50.25
2023-10-02T19:32:45.488Z,50.29
2023-10-02T19:34:47.151Z,50.06
2023-10-02T19:36:48.681Z,50.08
2023-10-02T19:38:50.203Z,49.93
2023-10-02T19:40:52.592Z,50.03
2023-10-02T19:42:54.079Z,49.89
2023-10-02T19:44:55.634Z,50.10
2023-10-02T19:46:58.234Z,50.26
2023-10-02T19:49:00.383Z,50.19
2023-10-02T19:51:05.526Z,50.19
2023-10-02T19:53:07.682Z,50.08
2023-10-02T19:55:10.992Z,50.22
2023-10-02T19:57:13.929Z,50.13
2023-10-02T19:59:15.479Z,49.93
2023-10-02T20:01:17.084Z,50.27
2023-10-02T20:03:20.956Z,50.19
2023-10-02T20:05:22.731Z,50.17
2023-10-02T20:07:25.084Z,50.25
2023-10-02T20:09:26.594Z,50.30
2023-10-02T20:11:28.182Z,50.33
2023-10-02T20:13:29.694Z,50.31
2023-10-02T20:15:32.023Z,50.31
2023-10-02T20:17:33.530Z,50.13
2023-10-02T20:19:35.103Z,50.30
2023-10-02T20:21:38.624Z,50.32
2023-10-02T20:23:52.389Z,50.40
2023-10-02T20:25:54.869Z,50.25
2023-10-02T20:27:56.467Z,50.29
2023-10-02T20:29:59.459Z,50.44
2023-10-02T20:32:01.122Z,50.16
2023-10-02T20:34:03.974Z,50.05
2023-10-02T20:36:07.156Z,50.39
2023-10-02T20:38:11.228Z,50.34
2023-10-02T20:40:14.509Z,50.38
2023-10-02T20:42:16.122Z,50.27
2023-10-02T20:44:18.597Z,50.06
2023-10-02T20:46:20.361Z,50.32
2023-10-02T20:48:22.069Z,50.40
2023-10-02T20:50:27.029Z,50.35
2023-10-02T20:52:28.568Z,50.34
2023-10-02T20:54:30.157Z,50.41
2023-10-02T20:56:36.196Z,50.40
2023-10-02T20:58:37.893Z,50.48
2023-10-02T21:00:42.726Z,50.24
2023-10-02T21:02:47.390Z,50.34
2023-10-02T21:04:48.891Z,50.46
2023-10-02T21:06:52.386Z,50.39
2023-10-02T21:08:54.209Z,50.33
2023-10-02T21:10:58.151Z,50.22
2023-10-02T21:13:00.037Z,50.20
2023-10-02T21:15:02.165Z,50.30
2023-10-02T21:17:03.853Z,50.23
2023-10-02T21:19:06.065Z,50.08
2023-10-02T21:21:08.734Z,50.20
2023-10-02T21:23:10.530Z,50.32
2023-10-02T21:25:16.789Z,50.38
2023-10-02T21:27:19.089Z,50.35
2023-10-02T21:29:20.663Z,50.38
2023-10-02T21:31:22.316Z,50.18
2023-10-02T21:33:23.923Z,50.01
2023-10-02T21:35:25.565Z,50.30
2023-10-02T21:37:27.167Z,50.16
2023-10-02T21:39:29.453Z,50.04
2023-10-02T21:41:31.000Z,50.01
2023-10-02T21:43:32.503Z,50.07
2023-10-02T21:45:35.283Z,50.29
2023-10-02T21:47:37.064Z,50.28
2023-10-02T21:49:38.723Z,50.33
2023-10-02T21:51:40.542Z,50.14
2023-10-02T21:53:42.147Z,50.11
2023-10-02T21:55:43.759Z,50.29
2023-10-02T21:57:45.684Z,50.26
2023-10-02T21:59:47.827Z,50.34
2023-10-02T22:01:49.452Z,50.34
2023-10-02T22:03:54.949Z,50.10
2023-10-02T22:05:56.552Z,50.13
2023-10-02T22:07:58.529Z,50.28
2023-10-02T22:10:00.027Z,50.15
2023-10-02T22:12:04.302Z,50.21
2023-10-02T22:14:10.152Z,49.88
2023-10-02T22:16:13.643Z,49.94
2023-10-02T22:18:15.661Z,50.02
2023-10-02T22:20:20.492Z,50.11
2023-10-02T22:22:25.371Z,50.16
2023-10-02T22:24:26.967Z,50.20
2023-10-02T22:26:28.488Z,50.04
2023-10-02T22:30:36.889Z,50.21
2023-10-02T22:32:38.579Z,49.95
2023-10-02T22:34:42.283Z,50.06
2023-10-02T22:36:44.202Z,49.83
2023-10-02T22:38:46.109Z,50.05
2023-10-02T22:42:54.246Z,50.06
2023-10-02T22:44:57.154Z,49.78
2023-10-02T22:46:58.648Z,50.06
2023-10-02T22:49:00.437Z,50.04
2023-10-02T22:57:14.526Z,49.89
2023-10-02T22:59:17.155Z,49.98
2023-10-02T23:01:20.690Z,49.86
2023-10-02T23:07:36.447Z,49.99
2023-10-02T23:09:37.984Z,50.03
2023-10-02T23:11:42.262Z,50.02
2023-10-02T23:13:44.151Z,49.78
2023-10-02T23:19:54.369Z,49.79
2023-10-02T23:21:56.305Z,49.77
2023-10-02T23:24:00.711Z,49.80
2023-10-02T23:26:03.146Z,49.72
2023-10-02T23:30:13.312Z,49.82
2023-10-02T23:32:14.816Z,49.79
2023-10-02T23:34:16.602Z,49.77
2023-10-02T23:36:18.172Z,49.80
2023-10-02T23:38:19.860Z,49.80
2023-10-02T23:40:21.765Z,49.80
2023-10-02T23:42:25.487Z,49.58
2023-10-02T23:44:27.507Z,49.70
2023-10-02T23:46:29.098Z,49.70
2023-10-02T23:48:31.114Z,49.67
2023-10-02T23:50:33.496Z,49.79
2023-10-02T23:52:35.723Z,49.62
2023-10-02T23:56:44.732Z,49.64
2023-10-02T23:58:46.260Z,49.58
